createdAt,value
2018-10-01T00:01:38.510Z,3.75
2018-10-01T00:06:41.945Z,3.00
2018-10-01T00:11:45.833Z,3.00
2018-10-01T00:16:49.278Z,4.00
2018-10-01T00:21:58.009Z,3.25
2018-10-01T00:27:01.765Z,3.00
2018-10-01T00:32:05.276Z,3.25
2018-10-01T00:37:08.808Z,2.80
2018-10-01T00:42:12.284Z,3.00
2018-10-01T00:47:15.749Z,3.00
2018-10-01T00:52:19.240Z,3.00
2018-10-01T00:57:22.661Z,3.75
2018-10-01T01:02:26.382Z,3.25
2018-10-01T01:07:29.805Z,2.80
2018-10-01T01:12:33.226Z,2.00
2018-10-01T01:17:36.633Z,2.50
2018-10-01T01:22:40.059Z,3.00
2018-10-01T01:27:43.472Z,3.00
2018-10-01T01:32:46.902Z,3.00
2018-10-01T01:37:50.311Z,3.00
2018-10-01T01:42:53.736Z,2.60
2018-10-01T01:47:57.149Z,3.00
2018-10-01T01:53:00.574Z,2.00
2018-10-01T01:58:04.013Z,2.00
2018-10-01T02:03:07.447Z,3.00
2018-10-01T02:08:10.865Z,3.00
2018-10-01T02:13:14.277Z,2.00
2018-10-01T02:18:17.698Z,3.00
2018-10-01T02:23:21.121Z,2.00
2018-10-01T02:28:24.521Z,2.25
2018-10-01T02:33:27.985Z,2.40
2018-10-01T02:38:31.418Z,2.00
2018-10-01T02:43:34.852Z,2.60
2018-10-01T02:48:38.308Z,2.25
2018-10-01T02:53:46.976Z,2.80
2018-10-01T02:58:50.401Z,2.00
2018-10-01T03:03:53.816Z,1.80
2018-10-01T03:08:57.238Z,3.00
2018-10-01T03:14:00.671Z,2.40
2018-10-01T03:19:04.085Z,2.00
2018-10-01T03:24:07.876Z,1.75
2018-10-01T03:29:11.612Z,3.00
2018-10-01T03:34:15.032Z,2.00
2018-10-01T03:39:18.453Z,2.00
2018-10-01T03:44:21.861Z,2.00
2018-10-01T03:49:25.297Z,2.00
2018-10-01T03:54:28.731Z,2.75
2018-10-01T03:59:32.160Z,2.75
2018-10-01T04:04:35.580Z,3.00
2018-10-01T04:09:39.005Z,2.20
2018-10-01T04:14:42.449Z,2.00
2018-10-01T04:19:45.869Z,3.00
2018-10-01T04:24:49.282Z,2.50
2018-10-01T04:29:52.713Z,2.75
2018-10-01T04:34:56.189Z,2.80
2018-10-01T04:39:59.588Z,2.00
2018-10-01T04:45:03.071Z,3.00
2018-10-01T04:50:06.593Z,3.00
2018-10-01T04:55:10.030Z,2.00
2018-10-01T05:00:13.470Z,3.00
2018-10-01T05:05:16.890Z,3.00
2018-10-01T05:10:20.313Z,2.00
2018-10-01T05:15:23.741Z,2.20
2018-10-01T05:20:27.140Z,2.50
2018-10-01T05:25:30.558Z,2.75
2018-10-01T05:30:34.056Z,2.00
2018-10-01T05:35:37.478Z,3.00
2018-10-01T05:40:40.900Z,2.00
2018-10-01T05:45:44.301Z,2.00
2018-10-01T05:50:47.710Z,2.00
2018-10-01T05:55:51.115Z,3.00
2018-10-01T06:00:54.541Z,3.00
2018-10-01T06:05:57.952Z,2.00
2018-10-01T06:11:01.361Z,2.25
2018-10-01T06:16:04.797Z,2.40
2018-10-01T06:21:08.604Z,11.00
2018-10-01T06:26:12.023Z,13.25
2018-10-01T06:31:15.461Z,9.25
2018-10-01T06:36:18.912Z,9.00
2018-10-01T06:41:22.368Z,9.00
2018-10-01T06:46:25.824Z,18.25
2018-10-01T06:51:29.261Z,10.00
2018-10-01T06:56:32.695Z,9.00
2018-10-01T07:01:36.121Z,9.00
2018-10-01T07:06:39.565Z,8.00
2018-10-01T07:11:43.114Z,14.25
2018-10-01T07:16:46.424Z,9.50
2018-10-01T07:21:49.862Z,10.00
2018-10-01T07:26:53.266Z,6.50
2018-10-01T07:31:56.660Z,7.00
2018-10-01T07:37:00.096Z,6.00
2018-10-01T07:42:03.640Z,5.00
2018-10-01T07:47:07.044Z,4.00
2018-10-01T07:52:10.481Z,3.00
2018-10-01T07:57:13.948Z,3.00
2018-10-01T08:02:17.421Z,3.00
2018-10-01T08:07:20.894Z,3.40
2018-10-01T08:12:24.343Z,1.75
2018-10-01T08:17:27.780Z,2.00
2018-10-01T08:22:31.230Z,1.50
2018-10-01T08:27:34.687Z,4.00
2018-10-01T08:32:38.209Z,2.00
2018-10-01T08:37:41.588Z,2.00
2018-10-01T08:42:45.049Z,2.00
2018-10-01T08:47:48.537Z,2.50
2018-10-01T08:52:57.250Z,3.00
2018-10-01T08:58:00.737Z,2.50
2018-10-01T09:03:04.197Z,1.75
2018-10-01T09:08:07.704Z,3.50
2018-10-01T09:13:11.109Z,2.00
2018-10-01T09:18:14.564Z,2.00
2018-10-01T09:23:18.038Z,2.20
2018-10-01T09:28:21.486Z,2.00
2018-10-01T09:33:24.933Z,1.60
2018-10-01T09:38:28.475Z,2.00
2018-10-01T09:43:31.916Z,2.00
2018-10-01T09:48:35.364Z,2.75
2018-10-01T09:53:38.888Z,2.00
2018-10-01T09:58:42.660Z,2.75
2018-10-01T10:03:46.089Z,2.00
2018-10-01T10:08:49.508Z,2.00
2018-10-01T10:13:52.965Z,15.00
2018-10-01T10:18:56.405Z,17.00
2018-10-01T10:23:59.841Z,15.00
2018-10-01T10:29:03.285Z,18.00
2018-10-01T10:34:06.876Z,15.40
2018-10-01T10:39:11.994Z,9.50
2018-10-01T10:44:15.556Z,8.00
2018-10-01T10:49:18.979Z,6.00
2018-10-01T10:54:22.445Z,6.00
2018-10-01T10:59:25.908Z,7.00
2018-10-01T11:04:29.352Z,7.00
2018-10-01T11:09:32.814Z,6.75
2018-10-01T11:14:36.346Z,5.50
2018-10-01T11:19:39.883Z,4.00
2018-10-01T11:24:43.367Z,3.00
2018-10-01T11:29:46.850Z,5.20
2018-10-01T11:34:50.479Z,4.50
2018-10-01T11:39:53.952Z,3.00
2018-10-01T11:44:57.405Z,4.00
2018-10-01T11:50:00.866Z,3.00
2018-10-01T11:55:04.449Z,4.50
2018-10-01T12:00:08.818Z,3.20
2018-10-01T12:05:12.259Z,4.00
2018-10-01T12:10:15.814Z,3.40
2018-10-01T12:15:19.289Z,5.00
2018-10-01T12:20:22.681Z,2.20
2018-10-01T12:25:26.153Z,4.00
2018-10-01T12:30:29.980Z,3.60
2018-10-01T12:35:33.428Z,3.00
2018-10-01T12:40:36.852Z,3.00
2018-10-01T12:45:40.379Z,2.00
2018-10-01T12:50:43.768Z,2.40
2018-10-01T12:55:47.203Z,3.00
2018-10-01T13:00:50.822Z,2.80
2018-10-01T13:05:54.275Z,3.00
2018-10-01T13:10:57.710Z,3.00
2018-10-01T13:16:01.169Z,3.00
2018-10-01T13:21:04.620Z,2.00
2018-10-01T13:26:08.047Z,3.00
2018-10-01T13:31:11.513Z,2.80
2018-10-01T13:36:15.023Z,2.40
2018-10-01T13:41:18.448Z,3.00
2018-10-01T13:46:21.902Z,2.00
2018-10-01T13:51:25.498Z,3.00
2018-10-01T13:56:29.082Z,2.00
2018-10-01T14:01:32.634Z,2.20
2018-10-01T14:06:36.170Z,3.00
2018-10-01T14:11:40.195Z,3.00
2018-10-01T14:16:43.668Z,2.00
2018-10-01T14:21:47.111Z,3.40
2018-10-01T14:26:50.550Z,3.00
2018-10-01T14:31:53.991Z,3.00
2018-10-01T14:36:57.468Z,2.00
2018-10-01T14:42:00.988Z,2.00
2018-10-01T14:47:04.411Z,2.00
2018-10-01T14:52:07.920Z,2.00
2018-10-01T14:57:11.424Z,2.50
2018-10-01T15:02:14.909Z,2.00
2018-10-01T15:07:18.459Z,2.00
2018-10-01T15:12:21.971Z,2.00
2018-10-01T15:17:25.442Z,2.00
2018-10-01T15:22:29.061Z,2.00
2018-10-01T15:27:33.262Z,2.00
2018-10-01T15:32:36.803Z,2.00
2018-10-01T15:37:40.306Z,2.00
2018-10-01T15:42:43.936Z,2.00
2018-10-01T15:47:47.505Z,2.50
2018-10-01T15:52:50.968Z,3.00
2018-10-01T15:57:54.520Z,7.50
2018-10-01T16:02:58.058Z,8.60
2018-10-01T16:08:01.497Z,10.00
2018-10-01T16:13:05.006Z,11.00
2018-10-01T16:18:08.524Z,9.00
2018-10-01T16:23:11.941Z,11.50
2018-10-01T16:28:15.393Z,10.00
2018-10-01T16:33:18.839Z,10.80
2018-10-01T16:38:22.309Z,9.75
2018-10-01T16:43:25.832Z,10.00
2018-10-01T16:48:30.317Z,9.25
2018-10-01T16:53:34.070Z,8.40
2018-10-01T16:58:37.595Z,9.00
2018-10-01T17:03:41.068Z,8.80
2018-10-01T17:08:44.603Z,8.00
2018-10-01T17:13:48.114Z,7.80
2018-10-01T17:18:51.852Z,8.00
2018-10-01T17:23:55.314Z,7.50
2018-10-01T17:28:58.761Z,6.75
2018-10-01T17:34:02.219Z,6.00
2018-10-01T17:39:08.409Z,7.00
2018-10-01T17:44:11.869Z,6.50
2018-10-01T17:49:15.618Z,7.75
2018-10-01T17:54:19.156Z,4.60
2018-10-01T17:59:22.575Z,8.00
2018-10-01T18:04:26.128Z,7.00
2018-10-01T18:09:29.528Z,4.00
2018-10-01T18:14:33.047Z,7.00
2018-10-01T18:19:36.472Z,7.00
2018-10-01T18:24:40.001Z,6.40
2018-10-01T18:29:43.515Z,5.50
2018-10-01T18:34:46.950Z,5.00
2018-10-01T18:39:50.389Z,4.00
2018-10-01T18:44:53.938Z,5.00
2018-10-01T18:49:57.545Z,4.00
2018-10-01T18:55:00.982Z,3.20
2018-10-01T19:00:04.764Z,3.20
2018-10-01T19:05:08.763Z,4.00
2018-10-01T19:10:12.240Z,3.00
2018-10-01T19:15:15.835Z,2.80
2018-10-01T19:20:19.157Z,3.50
2018-10-01T19:25:22.616Z,3.00
2018-10-01T19:30:26.279Z,3.00
2018-10-01T19:35:29.654Z,2.75
2018-10-01T19:40:33.063Z,3.00
2018-10-01T19:45:36.511Z,2.25
2018-10-01T19:50:39.937Z,2.00
2018-10-01T19:55:43.427Z,3.00
2018-10-01T20:00:46.857Z,2.00
2018-10-01T20:05:50.290Z,2.00
2018-10-01T20:10:53.758Z,1.75
2018-10-01T20:15:57.293Z,2.00
2018-10-01T20:21:00.803Z,2.00
2018-10-01T20:26:04.288Z,2.00
2018-10-01T20:31:07.674Z,3.00
2018-10-01T20:36:11.116Z,2.00
2018-10-01T20:41:14.607Z,2.00
2018-10-01T20:46:17.997Z,2.25
2018-10-01T20:51:21.430Z,2.00
2018-10-01T20:56:24.983Z,2.00
2018-10-01T21:01:28.437Z,2.75
2018-10-01T21:06:31.911Z,2.00
2018-10-01T21:11:35.382Z,2.00
2018-10-01T21:16:38.947Z,1.00
2018-10-01T21:21:42.370Z,1.00
2018-10-01T21:26:45.823Z,2.00
2018-10-01T21:31:49.256Z,2.00
2018-10-01T21:36:52.710Z,2.00
2018-10-01T21:41:56.154Z,2.75
2018-10-01T21:46:59.672Z,1.75
2018-10-01T21:52:03.122Z,2.00
2018-10-01T21:57:06.617Z,2.00
2018-10-01T22:02:10.040Z,1.00
2018-10-01T22:07:13.983Z,1.00
2018-10-01T22:12:17.437Z,1.00
2018-10-01T22:17:20.922Z,1.00
2018-10-01T22:22:24.376Z,1.25
2018-10-01T22:27:27.853Z,1.00
2018-10-01T22:32:31.261Z,1.00
2018-10-01T22:37:34.732Z,1.00
2018-10-01T22:42:38.180Z,1.00
2018-10-01T22:47:41.625Z,1.00
2018-10-01T22:52:45.119Z,1.00
2018-10-01T22:57:48.669Z,1.00
2018-10-01T23:02:52.104Z,1.80
2018-10-01T23:07:55.538Z,1.00
2018-10-01T23:12:58.980Z,1.00
2018-10-01T23:18:02.484Z,0.50
2018-10-01T23:23:05.912Z,1.00
2018-10-01T23:28:09.312Z,1.50
2018-10-01T23:33:12.723Z,1.00
2018-10-01T23:38:16.464Z,1.00
2018-10-01T23:43:19.866Z,1.00
2018-10-01T23:48:23.286Z,1.00
2018-10-01T23:53:26.749Z,0.80
2018-10-01T23:58:30.184Z,1.00
